Tiempo atmosférico en la estación meteorológica de Sa Pobla, Illes Balears (40 m.)



Fecha
DESCASC
Temp. máxima en grados centígrados (hora)
DESCASC
Temp. mínima en grados centígrados (hora)
DESCASC
Temp. media en grados centígrados
DESCASC
Racha de viento máxima en m/sg (hora)
DESCASC
Velocidad máxima media en intervalos de 10 minutos(hora)
DESCASC
Precipitaciones diarias en mm
DESCASC
Precipitaciones de 00:00 a 06:00 en mm
DESCASC
Precipitaciones de 06:00 a 12:00 en mm
DESCASC
Precipitaciones de 12:00 a 18:00 en mm
DESCASC
Precipitaciones de 18:00 a 24:00 en mm
DESCASC
23-06-2019 30.6 (14:10) 15.3 (06:30) 23 9.17 (15:50) 6.67 (16:20) 0 0 0 0 0
22-06-2019 27 (18:30) 19.1 (06:40) 23.1 9.17 (13:10) 5.83 (09:00) 0 0 0 0 0
21-06-2019 28.9 (13:20) 17.2 (05:40) 23.1 9.44 (17:00) 5.83 (19:10) 0 0 0 0 0
20-06-2019 31.2 (15:50) 17.6 (00:00) 24.4 8.33 (16:40) 5.28 (09:20) 0 0 0 0 0
19-06-2019 32 (16:10) 15.8 (00:00) 23.9 9.72 (12:10) 5 (12:40) 0 0 0 0 0
18-06-2019 33.4 (15:40) 13.4 (00:00) 23.4 9.17 (14:40) 4.44 (16:20) 0 0 0 0 0
17-06-2019 31.2 (12:50) 14.1 (00:00) 22.7 8.33 (15:20) 5 (14:10) 0 0 0 0 0
16-06-2019 27 (18:10) 15.9 (00:00) 21.4 10.28 (10:30) 7.22 (09:40) 0 0 0 0 0
15-06-2019 30.2 (12:50) 17.3 (00:00) 23.8 9.44 (13:20) 5.56 (23:50) 0 0 0 0 0
14-06-2019 29.6 (16:00) 19.8 (00:00) 24.7 12.22 (16:40) 5.83 (16:20) 0 0 0 0 0
13-06-2019 26.6 (15:10) 12 (00:00) 19.3 11.39 (17:00) 7.5 (16:00) 0 0 0 0 0
12-06-2019 24.2 (13:20) 16 (00:00) 20.1 8.33 (01:30) 5 (00:10) 0 0 0 0 0
11-06-2019 28.8 (18:00) 15.8 (00:00) 22.3 11.11 (22:50) 6.94 (20:40) 0 0 0 0 0
10-06-2019 28.8 (16:20) 15.5 (00:00) 22.1 9.17 (10:40) 5.56 (14:30) 0 0 0 0 0
09-06-2019 30.9 (15:20) 17.6 (00:00) 24.3 7.22 (18:00) 4.72 (18:10) 0 0 0 0 0
08-06-2019 24.8 (16:20) 16.8 (00:00) 20.8 12.78 (11:40) 8.33 (10:20) 0 0 0 0 0
07-06-2019 29.1 (13:10) 15.1 (00:00) 22.1 8.61 (15:00) 5 (14:40) 0.2 0 0.2 0 0
06-06-2019 27.8 (15:00) 16.2 (00:00) 22 11.94 (17:10) 6.39 (17:10) 0 0 0 0 0
05-06-2019 30.5 (16:10) 14.8 (00:00) 22.7 12.5 (17:20) 5.83 (12:50) 0 0 0 0 0
04-06-2019 31.9 (15:40) 13.8 (00:00) 22.8 9.72 (18:20) 6.39 (18:20) 0 0 0 0 0
03-06-2019 31.4 (14:40) 13.6 (00:00) 22.5 11.11 (15:40) 6.67 (15:30) 0 0 0 0 0
02-06-2019 29.5 (14:40) 11.5 (00:00) 20.5 8.89 (16:50) 5.56 (15:00) 0 0 0 0 0
01-06-2019 27.6 (16:40) 11.6 (00:00) 19.6 7.78 (16:00) 5 (17:30) 0 0 0 0 0
31-05-2019 27.2 (14:40) 11.4 (00:00) 19.3 8.89 (13:40) 4.44 (13:30) 0 0 0 0 0
30-05-2019 27.3 (16:20) 10.8 (00:00) 19 9.44 (17:50) 6.11 (18:00) 0 0 0 0 0
29-05-2019 22.5 (16:40) 14.3 (00:00) 18.4 7.5 (13:20) 4.17 (13:20) 0 0 0 0 0
28-05-2019 25 (14:40) 13.3 (00:00) 19.2 11.39 (18:50) 7.22 (19:00) 0 0 0 0 0
27-05-2019 27 (15:30) 12.6 (00:00) 19.8 9.72 (16:00) 6.39 (16:00) 0 0 0 0 0
26-05-2019 24.4 (16:20) 14.2 (00:00) 19.3 11.39 (17:00) 6.11 (11:30) 0 0 0 0 0

Gráficas

Temp. máximas Temp. mínimas Temp. medias Precipitaciones Rachas de viento máximas Velocidades máximas media en intervalos de 10 minutos

Datos horarios

Fecha y hora oficial Temperatura (ºC) Velocidad del viento (km/h) Dirección del viento Racha (km/h) Dirección de racha Precipitación (mm) Presión (hPa) Tendencia (hPa) Humedad (%)
2019-06-24 23:00:00 23 5 Sur 15 Sudeste 0 1010.8 2 83
2019-06-24 22:00:00 23.6 9 Sudeste 22 Sudeste 0 1010.1 1.4 79
2019-06-24 21:00:00 24.8 9 Nordeste 23 Norte 0 1009.2 0.6 76
2019-06-24 20:00:00 26.9 17 Nordeste 24 Nordeste 0 1008.8 -0.1 66
2019-06-24 19:00:00 28.9 16 Nordeste 24 Nordeste 0 1008.7 -0.4 59
2019-06-24 18:00:00 30.8 15 Este 26 Nordeste 0 1008.6 -0.9 51
2019-06-24 17:00:00 30.6 18 Nordeste -- -- 0 1008.9 -1 51
2019-06-24 16:00:00 31.7 6 Sudeste 21 Este 0 1009.1 -1.2 45
2019-06-24 15:00:00 31 10 Este 28 Este 0 1009.5 -1.2 47
2019-06-24 14:00:00 30.7 12 Este 28 Sudeste 0 1009.9 -0.8 48
2019-06-24 13:00:00 30 15 Este 29 Este 0 1010.3 -0.4 47
2019-06-24 12:00:00 30 16 Este 33 Este 0 1010.7 0.2 43
2019-06-24 11:00:00 28.7 3 Sudeste 15 Norte 0 1010.7 0.8 45
2019-06-24 10:00:00 26.2 7 Norte 14 Nordeste 0 1010.7 0.9 53
2019-06-24 09:00:00 24.3 9 Norte 16 Norte 0 1010.5 0.7 60
2019-06-24 08:00:00 21.6 7 Norte 12 Norte 0 1009.9 -0.1 64
2019-06-24 07:00:00 19.6 6 Norte 13 Norte 0 1009.8 -0.8 66
2019-06-24 06:00:00 19 6 Norte 12 Norte 0 1009.8 -1.5 64
2019-06-24 05:00:00 18.5 9 Noroeste 12 Noroeste 0 1010 -2 65
2019-06-24 04:00:00 17.5 4 Norte 9 Noroeste 0 1010.6 -1.4 68
2019-06-24 03:00:00 17.6 3 Noroeste 9 Noroeste 0 1011.3 -0.3 71
2019-06-24 02:00:00 18 3 Oeste 9 Nordeste 0 1012 0.2 69
2019-06-24 01:00:00 19.3 3 Oeste 6 Sudoeste 0 1012 1.1 66
2019-06-24 00:00:00 20.8 5 Noroeste 9 Noroeste 0 1011.6 1.3 61
2019-06-23 23:00:00 21.8 3 Noroeste 6 Nordeste 0 1011.8 1.8 59
2019-06-23 22:00:00 23.7 3 Norte 15 Nordeste 0 1010.9 0.9 55
2019-06-23 21:00:00 25.2 12 Nordeste 23 Norte 0 1010.3 0 52
2019-06-23 20:00:00 26.9 16 Norte 23 Nordeste 0 1010 -0.7 47
2019-06-23 19:00:00 28.3 17 Nordeste 26 Nordeste 0 1010 -0.8 46
2019-06-23 18:00:00 28.9 21 Nordeste 30 Nordeste 0 1010.3 -0.7 46
2019-06-23 17:00:00 29 23 Nordeste 33 Nordeste 0 1010.7 -0.5 45
2019-06-23 16:00:00 29.7 22 Nordeste 33 Norte 0 1010.8 -0.6 42
2019-06-23 15:00:00 29.7 19 Nordeste 32 Nordeste 0 1011 -0.6 41
2019-06-23 14:00:00 30.5 15 Nordeste 27 Nordeste 0 1011.2 -0.4 38
2019-06-23 13:00:00 30 13 Nordeste 22 Nordeste 0 1011.4 -0.5 40
2019-06-23 12:00:00 29.3 8 Nordeste 17 Nordeste 0 1011.6 -0.1 37
2019-06-23 11:00:00 27.3 3 Norte 14 Noroeste 0 1011.6 0.1 45
2019-06-23 10:00:00 25.3 5 Este 9 Nordeste 0 1011.9 0.7 56
2019-06-23 09:00:00 22.3 3 Nordeste 6 Nordeste 0 1011.7 0.6 68
2019-06-23 08:00:00 18.1 2 Sur 6 Sur 0 1011.5 0.3 85
2019-06-23 07:00:00 15.6 3 Sudoeste 6 Sur 0 1011.2 -0.5 89
2019-06-23 06:00:00 15.9 2 Noroeste 9 Sudoeste 0 1011.1 -0.6 87
2019-06-23 05:00:00 16.5 3 Sur 9 Sur 0 1011.2 -0.4 85
2019-06-23 04:00:00 17.3 7 Sur 9 Sur 0 1011.7 -0.2 86
2019-06-23 03:00:00 17.6 7 Sudoeste 11 Sur 0 1011.7 -0.3 85
2019-06-23 02:00:00 18.1 4 Sudoeste 8 Sudoeste 0 1011.6 -0.4 82
2019-06-23 01:00:00 18.8 4 Sudoeste 8 Oeste 0 1011.9 0.3 80
2019-06-23 00:00:00 19.3 4 Sudoeste 6 Sudoeste 0 1012 0.7 78
2019-06-22 23:00:00 20.4 4 Noroeste 9 Este 0 1012 0.5 76
2019-06-22 22:00:00 21.5 5 Nordeste 12 Nordeste 0 1011.6 0.4 73
2019-06-22 21:00:00 23 9 Nordeste 18 Nordeste 0 1011.3 -0.4 64
2019-06-22 20:00:00 25.8 10 Nordeste 18 Nordeste 0 1011.5 -0.7 53
2019-06-22 19:00:00 26.6 8 Nordeste 17 Este 0 1011.2 -1.4 47
2019-06-22 18:00:00 26.1 8 Nordeste 17 Nordeste 0 1011.7 -1.4 48
2019-06-22 17:00:00 25.5 10 Nordeste 21 Nordeste 0 1012.2 -1.1 49
2019-06-22 16:00:00 25.9 13 Nordeste 29 Nordeste 0 1012.6 -1 47
2019-06-22 15:00:00 26.4 17 Nordeste 30 Nordeste 0 1013.1 -0.7 44
2019-06-22 14:00:00 25.9 17 Nordeste 33 Nordeste 0 1013.3 -0.2 46
2019-06-22 13:00:00 25.9 16 Nordeste 33 Nordeste 0 1013.6 0.4 47
2019-06-22 12:00:00 25.3 19 Nordeste 32 Nordeste 0 1013.8 0.8 49
2019-06-22 11:00:00 24.6 18 Nordeste 32 Nordeste 0 1013.5 0.9 53
2019-06-22 10:00:00 23.9 18 Nordeste 32 Nordeste 0 1013.2 1.1 57
2019-06-22 09:00:00 22.6 21 Nordeste 30 Nordeste 0 1013 1 63
2019-06-22 08:00:00 20.8 9 Norte 15 Nordeste 0 1012.6 0.5 76
2019-06-22 07:00:00 19.2 9 Norte 19 Nordeste 0 1012.1 0 84
2019-06-22 06:00:00 19.4 11 Norte 21 Norte 0 1012 -0.1 86
2019-06-22 05:00:00 19.8 11 Norte 18 Norte 0 1012.1 -0.1 87
2019-06-22 04:00:00 19.8 10 Norte 18 Norte 0 1012.1 0.2 87
2019-06-22 03:00:00 19.6 10 Norte 18 Norte 0 1012.1 0.4 89
2019-06-22 02:00:00 19.3 9 Nordeste 13 Nordeste 0 1012.2 0.7 90
2019-06-22 01:00:00 19.3 6 Nordeste 11 Norte 0 1011.9 1.4 86
2019-06-22 00:00:00 19.9 7 Norte 9 Norte 0 1011.7 1.9 87
2019-06-21 23:00:00 20.7 6 Este 12 Este 0 1011.5 1.7 84
2019-06-21 22:00:00 21.7 6 Este 14 Este 0 1010.5 1 79
2019-06-21 21:00:00 22.8 9 Nordeste 27 Nordeste 0 1009.8 0.5 74
2019-06-21 20:00:00 23.1 18 Nordeste 28 Nordeste 0 1009.8 0.5 73
2019-06-21 19:00:00 24.2 18 Nordeste 32 Nordeste 0 1009.5 0.1 70
2019-06-21 18:00:00 25.4 17 Nordeste 32 Nordeste 0 1009.3 -0.2 66
2019-06-21 17:00:00 27.1 20 Nordeste 34 Nordeste 0 1009.3 -0.4 59
2019-06-21 16:00:00 27.3 17 Nordeste 31 Nordeste 0 1009.4 -0.6 59
2019-06-21 15:00:00 27 17 Nordeste 29 Nordeste 0 1009.5 -1 62
2019-06-21 14:00:00 28.5 15 Nordeste 27 Este 0 1009.7 0.7 55
2019-06-21 13:00:00 28.5 9 Sudeste 18 Este 0 1010 0.5 50
2019-06-21 12:00:00 25.8 6 Sudoeste 20 Oeste 0 1010.5 0 60
2019-06-21 11:00:00 22.5 8 Este 14 Este 0 1009 -0.3 81
2019-06-21 10:00:00 21.9 5 Este 10 Este 0 1009.5 0.3 83
2019-06-21 09:00:00 21.2 6 Oeste 14 Oeste 0 1010.5 1.8 88
2019-06-21 08:00:00 20.1 0 Calma 7 Sudoeste 0 1009.3 1 91
2019-06-21 07:00:00 18.5 4 Sudoeste 7 Sudoeste 0 1009.2 0.3 92
2019-06-21 06:00:00 17.4 3 Sudoeste 7 Este 0 1008.7 -0.6 91
2019-06-21 05:00:00 17.6 3 Norte 5 Noroeste 0 1008.3 -1.2 87
2019-06-21 04:00:00 18.6 4 Sur 10 Sur 0 1008.9 -0.6 86
2019-06-21 03:00:00 19.3 5 Sudoeste 12 Sudoeste 0 1009.3 0 87
2019-06-21 02:00:00 20 4 Oeste 6 Oeste 0 1009.5 0.1 86
2019-06-21 01:00:00 20.8 2 Este 6 Este 0 1009.5 0.8 81
2019-06-21 00:00:00 21.3 4 Este 6 Este 0 1009.3 1.3 77
2019-06-20 23:00:00 22.4 5 Nordeste 14 Nordeste 0 1009.4 2.1 75
2019-06-20 22:00:00 23.1 7 Nordeste 18 Norte 0 1008.7 1.4 73
2019-06-20 21:00:00 24.8 11 Nordeste 20 Nordeste 0 1008 0.3 63
2019-06-20 20:00:00 26.6 14 Norte 23 Nordeste 0 1007.3 -0.6 55
2019-06-20 19:00:00 28.8 13 Norte 24 Nordeste 0 1007.3 -1 45
2019-06-20 18:00:00 29.2 16 Nordeste 27 Nordeste 0 1007.7 -1.2 47
2019-06-20 17:00:00 30.5 14 Nordeste 30 Nordeste 0 1007.9 -1.6 36
2019-06-20 16:00:00 30.8 17 Nordeste 28 Nordeste 0 1008.3 -1.5 42
2019-06-20 15:00:00 29.3 10 Nordeste 24 Nordeste 0 1008.9 -0.7 50
2019-06-20 14:00:00 28.7 12 Nordeste 25 Nordeste 0 1009.5 0.2 51
2019-06-20 13:00:00 28.3 13 Nordeste 24 Nordeste 0 1009.8 0.6 44
2019-06-20 12:00:00 27.1 14 Nordeste 27 Este 0 1009.6 0.5 47
2019-06-20 11:00:00 26.8 13 Nordeste 28 Nordeste 0 1009.3 0.1 51
2019-06-20 10:00:00 25.2 16 Nordeste 27 Nordeste 0 1009.2 0.2 61
2019-06-20 09:00:00 22.9 13 Nordeste 21 Norte 0 1009.1 -0.1 78
2019-06-20 08:00:00 18.8 4 Oeste 10 Sur 0 1009.2 -0.1 91
2019-06-20 07:00:00 17.8 2 Oeste 8 Noroeste 0 1009 -0.2 92
2019-06-20 06:00:00 18.5 4 Sudoeste 12 Sudoeste 0 1009.2 -0.3 92
2019-06-20 05:00:00 19.1 6 Sudoeste 13 Sudoeste 0 1009.3 0.2 92
2019-06-20 04:00:00 19.4 3 Noroeste 10 Sudoeste 0 1009.2 0.1 93
2019-06-20 03:00:00 19.2 5 Sudoeste 17 Sudoeste 0 1009.5 0.3 94
2019-06-20 02:00:00 18.4 4 Sur 7 Sur 0 1009.1 0 86
2019-06-20 01:00:00 19.5 3 Sudoeste 9 Sudoeste 0 1009.1 0.3 84
2019-06-20 00:00:00 20.5 4 Sur 10 Sur 0 1009.2 0.6 79
2019-06-19 23:00:00 21.8 6 Sur 13 Sudoeste 0 1009.1 0.9 71
2019-06-19 22:00:00 23.4 8 Sudoeste 20 Sudoeste 0 1008.8 0.6 65
2019-06-19 21:00:00 25 5 Este 15 Norte 0 1008.6 0 61
2019-06-19 20:00:00 29.8 8 Sudoeste 19 Sur 0 1008.2 -0.7 35
2019-06-19 19:00:00 30.4 10 Sudoeste 25 Sudoeste 0 1008.2 -0.8 33
2019-06-19 18:00:00 30.4 12 Sudoeste 31 Sudoeste 0 1008.6 -0.6 38
2019-06-19 17:00:00 31.1 14 Sudoeste 30 Sudoeste 0 1008.9 -0.8 39
2019-06-19 16:00:00 31.8 11 Sudoeste 30 Sudoeste 0 1009 -1 39
2019-06-19 15:00:00 31.2 12 Sudoeste 27 Sudoeste 0 1009.2 -0.5 39
2019-06-19 14:00:00 29.8 17 Sudoeste 33 Sudoeste 0 1009.7 0.2 44
2019-06-19 13:00:00 29.3 15 Sudoeste 35 Sudoeste 0 1010 0.1 43
2019-06-19 12:00:00 30.6 14 Sudoeste 30 Sur 0 1009.7 -0.6 33
2019-06-19 11:00:00 28.9 10 Sur 19 Sur 0 1009.5 -0.7 30
2019-06-19 10:00:00 26.5 7 Sur 21 Sur 0 1009.9 -0.1 37
2019-06-19 09:00:00 23.2 8 Sur 15 Sur 0 1010.3 0.4 51
2019-06-19 08:00:00 18.8 7 Sur 17 Sur 0 1010.2 0.5 58
2019-06-19 07:00:00 17 9 Sur 16 Sur 0 1010 0.2 60
2019-06-19 06:00:00 16.2 4 Sur 14 Sur 0 1009.9 -0.1 62
2019-06-19 05:00:00 16.4 5 Sur 14 Sur 0 1009.7 -0.6 60
2019-06-19 04:00:00 17 4 Sudoeste 16 Sudoeste 0 1009.8 -0.8 56
2019-06-19 03:00:00 18.2 9 Sur 15 Sur 0 1010 -1 59
2019-06-19 02:00:00 18.4 8 Sudoeste 15 Sudoeste 0 1010.3 -0.6 55
2019-06-19 01:00:00 19.4 8 Sudoeste 17 Sudoeste 0 1010.6 -0.1 52
2019-06-19 00:00:00 20.6 9 Sudoeste 17 Sudoeste 0 1011 0.3 50
2019-06-18 23:00:00 21.7 5 Sudoeste 11 Sudoeste 0 1010.9 0.6 50
2019-06-18 22:00:00 24.2 4 Sudoeste 19 Sudoeste 0 1010.7 0.6 41
2019-06-18 21:00:00 26.7 10 Sudoeste 27 Sur 0 1010.7 0.4 33
2019-06-18 20:00:00 29.8 13 Sudoeste 25 Sudeste 0 1010.3 -0.3 26
2019-06-18 19:00:00 30.8 14 Sur 28 Sur 0 1010.1 -0.7 23
2019-06-18 18:00:00 31.8 13 Sur 29 Sur 0 1010.3 -0.6 22
2019-06-18 17:00:00 32.6 13 Sudoeste 32 Sur 0 1010.6 -0.8 23
2019-06-18 16:00:00 32.9 14 Sur 31 Sudoeste 0 1010.8 -1 19
2019-06-18 15:00:00 32.9 12 Sur 33 Sudoeste 0 1010.9 -1.2 20
2019-06-18 14:00:00 32.4 9 Sur 25 Sudeste 0 1011.4 -1.1 21
2019-06-18 13:00:00 31 12 Sudeste 21 Sudeste 0 1011.8 -0.9 22
2019-06-18 12:00:00 29.9 6 Sudeste 23 Sudeste 0 1012.1 -0.6 24
2019-06-18 11:00:00 28.2 8 Sudeste 15 Sudeste 0 1012.5 0 27
2019-06-18 10:00:00 25.7 4 Sudeste 9 Sudeste 0 1012.7 0.6 42
2019-06-18 09:00:00 22.3 2 Sur 6 Sur 0 1012.7 0.7 55
2019-06-18 08:00:00 18.7 4 Sur 9 Sudoeste 0 1012.5 0.6 63
2019-06-18 07:00:00 14.3 4 Sudoeste 7 Sudoeste 0 1012.1 -0.1 77
2019-06-18 06:00:00 13.7 4 Sudoeste 8 Sur 0 1012 -0.5 81
2019-06-18 05:00:00 14.2 7 Sudoeste 10 Sudoeste 0 1011.9 -0.9 75
2019-06-18 04:00:00 14.8 3 Sudoeste 8 Sudoeste 0 1012.2 -1.1 74
2019-06-18 03:00:00 15.6 3 Sudoeste 9 Sudoeste 0 1012.5 -0.7 72
2019-06-18 02:00:00 16.2 3 Sudoeste 7 Sur 0 1012.8 -0.1 70
2019-06-18 01:00:00 17.4 4 Sudoeste 8 Sudoeste 0 1013.3 0.6 65
2019-06-18 00:00:00 18.3 3 Sur 7 Sur 0 1013.2 1 63
2019-06-17 23:00:00 19.7 5 Sur 8 Sur 0 1012.9 1 57
2019-06-17 22:00:00 21.3 3 Este 11 Este 0 1012.7 0.8 58
2019-06-17 21:00:00 24.1 6 Nordeste 14 Nordeste 0 1012.2 0 47
2019-06-17 20:00:00 27.1 9 Nordeste 18 Nordeste 0 1011.9 -0.7 39
2019-06-17 19:00:00 27.2 11 Nordeste 25 Nordeste 0 1011.9 -0.9 40
2019-06-17 18:00:00 27.9 13 Nordeste 24 Nordeste 0 1012.2 -0.7 38
2019-06-17 17:00:00 29.2 13 Nordeste 25 Nordeste 0 1012.6 -0.3 33
2019-06-17 16:00:00 29.3 17 Nordeste 30 Nordeste 0 1012.8 -0.4 32
2019-06-17 15:00:00 30.3 16 Nordeste 28 Norte 0 1012.9 -0.5 29
2019-06-17 14:00:00 29.9 15 Nordeste 27 Nordeste 0 1012.9 -0.4 32
2019-06-17 13:00:00 30.5 15 Nordeste 25 Nordeste 0 1013.2 -0.3 25
2019-06-17 12:00:00 30.4 9 Este 19 Este 0 1013.4 -0.2 28
2019-06-17 11:00:00 28.5 3 Sudeste 9 Este 0 1013.3 -0.1 38
2019-06-17 10:00:00 24.6 4 Este 7 Este 0 1013.5 0 50
2019-06-17 09:00:00 23 3 Sudeste 7 Sudoeste 0 1013.6 -0.2 60
2019-06-17 08:00:00 18.4 3 Sudoeste 8 Sur 0 1013.4 -0.3 76
2019-06-17 07:00:00 14.2 3 Sur 7 Oeste 0 1013.5 -0.5 87
2019-06-17 06:00:00 15 4 Oeste 9 Oeste 0 1013.8 0 87
2019-06-17 05:00:00 15.6 2 Norte 7 Noroeste 0 1013.7 -0.7 85
2019-06-17 04:00:00 16.9 5 Sur 7 Sudeste 0 1014 -0.3 85
2019-06-17 03:00:00 17.1 2 Norte 7 Sudoeste 0 1013.8 -0.4 82
2019-06-17 02:00:00 18.1 5 Sudoeste 9 Sur 0 1014.4 0 75
2019-06-17 01:00:00 18 3 Oeste 10 Sur 0 1014.3 0.3 67
2019-06-17 00:00:00 18.7 2 Oeste 6 Sur 0 1014.2 0.5 66
2019-06-16 23:00:00 19.5 7 Sur 9 Sur 0 1014.4 0.4 54
2019-06-16 22:00:00 20.5 4 Oeste 7 Sudeste 0 1014 -0.1 55
2019-06-16 21:00:00 22.2 5 Este 12 Nordeste 0 1013.7 -0.5 49
2019-06-16 20:00:00 23.2 10 Nordeste 18 Este 0 1014 -1.2 42
2019-06-16 19:00:00 25.2 9 Nordeste 30 Nordeste 0 1014.1 -1.6 32
2019-06-16 18:00:00 26.6 14 Nordeste 26 Nordeste 0 1014.2 -1.7 29
2019-06-16 17:00:00 26.9 11 Nordeste 26 Norte 0 1015.2 -1.2 33
2019-06-16 16:00:00 26.4 12 Nordeste 26 Nordeste 0 1015.7 -1 43
2019-06-16 15:00:00 25.9 15 Nordeste 29 Nordeste 0 1015.9 -0.7 44
2019-06-16 14:00:00 26 17 Nordeste 28 Nordeste 0 1016.4 -0.2 46
2019-06-16 13:00:00 25.6 17 Nordeste 34 Nordeste 0 1016.7 0.3 45
2019-06-16 12:00:00 24.3 19 Nordeste 35 Norte 0 1016.6 0.3 49
2019-06-16 11:00:00 23 21 Nordeste 37 Nordeste 0 1016.6 0.5 53
2019-06-16 10:00:00 22.1 25 Nordeste 36 Norte 0 1016.4 0.3 57
2019-06-16 09:00:00 20.9 22 Norte 35 Norte 0 1016.3 0.4 62
2019-06-16 08:00:00 19.9 19 Nordeste 26 Nordeste 0 1016.1 0.2 65
2019-06-16 07:00:00 16.6 4 Norte 7 Norte 0 1016.1 -0.1 87
2019-06-16 06:00:00 16.6 6 Norte 13 Norte 0 1015.9 -0.5 86
2019-06-16 05:00:00 17.6 10 Norte 16 Norte 0 1015.9 -0.5 83
2019-06-16 04:00:00 17.9 8 Norte 15 Norte 0 1016.2 -0.2 82
2019-06-16 03:00:00 18.3 11 Norte 19 Norte 0 1016.4 0.4 82
2019-06-16 02:00:00 18.7 11 Norte 22 Norte 0 1016.4 1 78
2019-06-16 01:00:00 19.3 17 Norte 33 Norte 0 1016.4 2 75
2019-06-16 00:00:00 20.3 19 Nordeste 32 Nordeste 0 1016 2.3 77
2019-06-15 23:00:00 20.6 14 Nordeste 24 Nordeste 0 1015.4 2.4 79
2019-06-15 22:00:00 20.3 10 Nordeste 23 Nordeste 0 1014.4 1.9 84
2019-06-15 21:00:00 21.6 10 Nordeste 26 Nordeste 0 1013.7 1.3 77
2019-06-15 20:00:00 23.8 13 Nordeste 25 Nordeste 0 1013 0.7 67
2019-06-15 19:00:00 25.1 14 Nordeste 26 Este 0 1012.5 0.2 63
2019-06-15 18:00:00 26.2 15 Nordeste 29 Este 0 1012.4 0.3 58
2019-06-15 17:00:00 27.1 17 Nordeste 32 Nordeste 0 1012.3 0.3 53
2019-06-15 16:00:00 28.4 15 Nordeste 28 Nordeste 0 1012.3 0.2 47
2019-06-15 15:00:00 29 17 Nordeste 28 Este 0 1012.1 0.1 43
2019-06-15 14:00:00 29.6 14 Nordeste 34 Nordeste 0 1012 0 40
2019-06-15 13:00:00 30.1 9 Nordeste 24 Nordeste 0 1012.1 0 37
2019-06-15 12:00:00 28.7 5 Sur 18 Sudoeste 0 1012 0.4 41
2019-06-15 11:00:00 25.6 11 Sudoeste 30 Sudoeste 0 1012 0.8 52
2019-06-15 10:00:00 23.7 17 Sudoeste 33 Sudoeste 0 1012.1 1.2 60
2019-06-15 09:00:00 22.8 17 Sudoeste 33 Sudoeste 0 1011.6 0.9 63
2019-06-15 08:00:00 21.2 9 Sudoeste 22 Sudoeste 0 1011.2 0.9 73
2019-06-15 07:00:00 18.7 9 Sur 23 Sudoeste 0 1010.9 0.7 89
2019-06-15 06:00:00 17.4 11 Sur 27 Sur 0 1010.7 0.2 94
2019-06-15 05:00:00 17.8 15 Sur 30 Sur 0 1010.3 -0.2 93
2019-06-15 04:00:00 18 17 Sur 30 Sur 0 1010.2 -0.7 94
2019-06-15 03:00:00 18.1 18 Sur 30 Sur 0 1010.5 -0.7 92
2019-06-15 02:00:00 18.8 15 Sur 28 Sur 0 1010.5 -0.3 88
2019-06-15 01:00:00 19.8 15 Sudoeste 27 Sudoeste 0 1010.9 0.6 84
2019-06-15 00:00:00 20.1 14 Sudoeste 26 Sudoeste 0 1011.2 1.8 85
2019-06-14 23:00:00 20.8 14 Sudoeste 28 Sudoeste 0 1010.8 2 78
2019-06-14 22:00:00 21.3 11 Sudoeste 31 Sudoeste 0 1010.3 2.3 75
2019-06-14 21:00:00 22.7 18 Sudoeste 35 Sur 0 1009.4 1.9 66
2019-06-14 20:00:00 26.9 16 Sur 35 Sur 0 1008.8 1.5 41
2019-06-14 19:00:00 27.4 18 Sur 36 Sur 0 1008 1.3 37
2019-06-14 18:00:00 27.8 20 Sudoeste 38 Sudoeste 0 1007.5 1.3 38
2019-06-14 17:00:00 28.8 19 Sudoeste 44 Sur 0 1007.3 1.1 37
2019-06-14 16:00:00 28.9 16 Sudoeste 35 Sur 0 1006.7 1 39
2019-06-14 15:00:00 28.5 12 Sudoeste 36 Sudoeste 0 1006.2 1.7 42
2019-06-14 14:00:00 26.5 18 Sudoeste 39 Oeste 0 1006.2 2.1 50
2019-06-14 13:00:00 26.1 21 Sudoeste 41 Sudoeste 0 1005.7 2.1 54
2019-06-14 12:00:00 26 19 Sudoeste 39 Sudoeste 0 1004.5 2 55
2019-06-14 11:00:00 25.9 10 Oeste 30 Sudoeste 0 1004.1 2.7 58
2019-06-14 10:00:00 24 16 Sudoeste 31 Sur 0 1003.6 1.7 64
2019-06-14 09:00:00 24.7 9 Sur 18 Sur 0 1002.5 1.3 63
2019-06-14 08:00:00 22.8 0 Calma 11 Noroeste 0 1001.4 0.2 72
2019-06-14 07:00:00 20.6 5 Sudoeste 17 Norte 0 1001.9 -0.3 82
2019-06-14 06:00:00 20.2 9 Norte 17 Norte 0 1001.2 -2 83
2019-06-14 05:00:00 19.9 12 Norte 26 Norte 0 1001.2 -2.7 83
2019-06-14 04:00:00 20.1 13 Norte 25 Norte 0 1002.2 -3.1 82
2019-06-14 03:00:00 20 13 Norte 27 Norte 0 1003.2 -3.1 81
2019-06-14 02:00:00 19.8 15 Norte 30 Norte 0 1003.9 -2.7 82
2019-06-14 01:00:00 20 10 Norte 22 Norte 0 1005.3 -1.5 81
2019-06-14 00:00:00 20.4 11 Norte 23 Norte 0 1006.3 0.2 80
2019-06-13 23:00:00 20.7 15 Norte 26 Norte 0 1006.6 0.6 77
2019-06-13 22:00:00 21.1 12 Nordeste 28 Norte 0 1006.8 0.6 75
2019-06-13 21:00:00 21.5 18 Nordeste 31 Nordeste 0 1006.1 -0.5 71
2019-06-13 20:00:00 23.2 18 Nordeste 35 Nordeste 0 1006 -1.1 62
2019-06-13 19:00:00 24.6 20 Nordeste 35 Nordeste 0 1006.2 -1.7 54
2019-06-13 18:00:00 25.5 20 Nordeste -- -- 0 1006.6 -1.9 50
2019-06-13 17:00:00 25.8 24 Nordeste 41 Nordeste 0 1007.1 -2.1 43
2019-06-13 16:00:00 25.6 27 Nordeste 40 Nordeste 0 1007.9 -2.3 41
2019-06-13 15:00:00 26.4 21 Nordeste 37 Nordeste 0 1008.5 -2.1 42
2019-06-13 14:00:00 25.8 15 Nordeste 33 Norte 0 1009.2 -1.5 45
2019-06-13 13:00:00 24.2 18 Nordeste 33 Nordeste 0 1010.2 -0.4 51
2019-06-13 12:00:00 23.2 16 Nordeste 30 Nordeste 0 1010.6 0.8 55
2019-06-13 11:00:00 22 19 Nordeste 33 Nordeste 0 1010.7 0.2 59
2019-06-13 10:00:00 21.8 19 Nordeste 32 Nordeste 0 1010.6 0.2 61
2019-06-13 09:00:00 20.4 15 Nordeste 29 Nordeste 0 1009.8 -0.2 69
2019-06-13 08:00:00 17 5 Norte 10 Norte 0 1010.5 -0.3 79
2019-06-13 07:00:00 13.4 4 Noroeste 7 Noroeste 0 1010.4 -0.3 92
2019-06-13 06:00:00 12.5 5 Noroeste 8 Noroeste 0 1010 -1 91
2019-06-13 05:00:00 12.4 2 Sur 7 Oeste 0 1010.8 -0.3 87
2019-06-13 04:00:00 12.9 2 Sudeste 10 Oeste 0 1010.7 -0.8 83
2019-06-13 03:00:00 13.9 2 Oeste 8 Oeste 0 1011 -0.8 83
2019-06-13 02:00:00 14.1 3 Sudoeste 5 Sudoeste 0 1011.1 -0.9 82
2019-06-13 01:00:00 15.1 0 Calma 6 Noroeste 0 1011.5 -0.2 79
2019-06-13 00:00:00 16.1 4 Noroeste 8 Noroeste 0 1011.8 0.5 76
2019-06-12 23:00:00 17.2 0 Calma 8 Este 0 1012 0.9 71
2019-06-12 22:00:00 18.6 4 Sudeste 19 Sudeste 0 1011.7 1 65
2019-06-12 21:00:00 20.2 13 Sudeste 21 Nordeste 0 1011.3 0.2 58
2019-06-12 20:00:00 20.4 17 Nordeste 23 Nordeste 0 1011.1 -0.3 60
2019-06-12 19:00:00 22.3 17 Nordeste 27 Nordeste 0 1010.7 -0.8 52
2019-06-12 18:00:00 22.8 15 Nordeste 29 Nordeste 0 1011.1 -0.7 48
2019-06-12 17:00:00 23.1 15 Nordeste 29 Este 0 1011.4 -0.7 46
2019-06-12 16:00:00 23.7 12 Nordeste 26 Este 0 1011.5 -0.5 45
2019-06-12 15:00:00 23 15 Este 29 Nordeste 0 1011.8 0 46
2019-06-12 14:00:00 22.8 14 Nordeste 29 Nordeste 0 1012.1 0.1 47
2019-06-12 13:00:00 22.5 15 Nordeste 30 Norte 0 1012 0.2 49
2019-06-12 12:00:00 22.7 14 Nordeste 27 Nordeste 0 1011.8 0.3 51
2019-06-12 11:00:00 20.9 11 Nordeste 19 Nordeste 0 1012 1.3 56
2019-06-12 10:00:00 19.6 9 Nordeste 17 Nordeste 0 1011.8 1.5 60
2019-06-12 09:00:00 18 10 Nordeste 19 Nordeste 0 1011.5 1.7 67
2019-06-12 08:00:00 17.5 12 Norte 18 Norte 0 1010.7 1.1 72
2019-06-12 07:00:00 16.6 8 Norte 13 Norte 0 1010.3 0.8 78
2019-06-12 06:00:00 16.2 6 Norte 15 Norte 0 1009.8 -0.1 77
2019-06-12 05:00:00 16.5 10 Norte 18 Norte 0 1009.6 -0.7 75
2019-06-12 04:00:00 16.3 9 Norte 19 Nordeste 0 1009.5 -1.4 76
2019-06-12 03:00:00 16.2 10 Norte 22 Norte 0 1009.9 -0.9 75
2019-06-12 02:00:00 16.3 17 Nordeste 30 Norte 0 1010.3 -0.1 75
2019-06-12 01:00:00 16.4 17 Norte 28 Nordeste 0 1010.9 1.7 78
2019-06-12 00:00:00 16.2 21 Norte 37 Norte 0 1010.8 2.7 82
2019-06-11 23:00:00 16.5 22 Norte 40 Norte 0 1010.4 3.7 83
2019-06-11 22:00:00 17.6 24 Norte 39 Norte 0 1009.2 3.5 80
2019-06-11 21:00:00 18.4 23 Norte 40 Norte 0 1008.1 2.3 79
2019-06-11 20:00:00 21.1 23 Norte 36 Norte 0 1006.7 0.9 68
2019-06-11 19:00:00 24.3 18 Nordeste -- -- 0 1005.7 -0.3 54
2019-06-11 18:00:00 28.6 7 Este 25 Sudoeste 0 1005.8 -0.1 40
2019-06-11 17:00:00 28 12 Sur 28 Sudeste 0 1005.8 -0.7 38
2019-06-11 16:00:00 27.2 15 Sur 30 Sur 0 1006 -0.9 41
2019-06-11 15:00:00 28 11 Sur 31 Sur 0 1005.9 -1.1 38
2019-06-11 14:00:00 25.9 17 Sudeste 36 Sudeste 0 1006.5 -0.5 45
2019-06-11 13:00:00 26.3 12 Sudeste 23 Sur 0 1006.9 -0.3 45
2019-06-11 12:00:00 24.9 11 Sudeste 21 Sudeste 0 1007 -0.4 46
2019-06-11 11:00:00 24.6 6 Sudeste 13 Sudeste 0 1007 -0.5 47
2019-06-11 10:00:00 23.6 4 Oeste 12 Este 0 1007.2 -0.3 53
2019-06-11 09:00:00 21.4 5 Sudeste 12 Sur 0 1007.4 -0.1 65
2019-06-11 08:00:00 19.3 2 Oeste 6 Oeste 0 1007.5 -0.2 83
2019-06-11 07:00:00 15.9 3 Sur 8 Noroeste 0 1007.5 -0.7 93
2019-06-11 06:00:00 16 5 Oeste 9 Oeste 0 1007.5 -1.3 91
2019-06-11 05:00:00 16.7 3 Nordeste 6 Sudeste 0 1007.7 -1.6 87
2019-06-11 04:00:00 17.8 4 Sudeste 6 Sudeste 0 1008.2 -1.8 81
2019-06-11 03:00:00 19.5 4 Sur 13 Sur 0 1008.8 -1.5 77
2019-06-11 02:00:00 20.1 8 Sur 13 Sur 0 1009.3 -0.8 74
2019-06-11 01:00:00 20.5 6 Sur 17 Sur 0 1010 0.3 68
2019-06-11 00:00:00 20.6 4 Sudeste 14 Sudeste 0 1010.3 1.1 58
2019-06-10 23:00:00 20.2 2 Noroeste 6 Norte 0 1010.1 1.6 61
2019-06-10 22:00:00 20.7 3 Nordeste 11 Nordeste 0 1009.7 1.5 59
2019-06-10 21:00:00 21.8 9 Nordeste 18 Este 0 1009.2 1.1 52
2019-06-10 20:00:00 24.3 10 Nordeste 26 Este 0 1008.5 0.2 41
2019-06-10 19:00:00 25.2 15 Nordeste 28 Nordeste 0 1008.2 -0.4 38
2019-06-10 18:00:00 26.8 13 Este 31 Norte 0 1008.1 -0.5 36
2019-06-10 17:00:00 27.1 18 Nordeste 30 Nordeste 0 1008.3 -0.7 37
2019-06-10 16:00:00 27.9 13 Nordeste 33 Nordeste 0 1008.6 -0.5 35
2019-06-10 15:00:00 27.4 14 Nordeste 32 Nordeste 0 1008.6 -1.1 36
2019-06-10 14:00:00 27.6 15 Nordeste 28 Nordeste 0 1009 -0.9 38
2019-06-10 13:00:00 26.5 13 Nordeste 27 Norte 0 1009.1 -0.6 43
2019-06-10 12:00:00 24.4 13 Norte 27 Norte 0 1009.7 0.1 49
2019-06-10 11:00:00 22.7 13 Norte 33 Norte 0 1009.9 1 59
2019-06-10 10:00:00 22.4 19 Norte 32 Nordeste 0 1009.7 0.9 61
2019-06-10 09:00:00 21.5 18 Norte 31 Norte 0 1009.6 1 64
2019-06-10 08:00:00 20.8 17 Norte 25 Norte 0 1008.9 0.2 67
2019-06-10 07:00:00 19 12 Norte 20 Norte 0 1008.8 0.2 77
2019-06-10 06:00:00 15.8 2 Norte 8 Norte 0 1008.6 -0.3 93
2019-06-10 05:00:00 16.4 2 Sur 12 Sur 0 1008.7 -0.3 93
2019-06-10 04:00:00 16.8 5 Sur 9 Sur 0 1008.6 -1.1 91
2019-06-10 03:00:00 17.1 4 Este 5 Este 0 1008.9 -0.4 85
2019-06-10 02:00:00 18.2 3 Oeste 5 Oeste 0 1009 -0.2 83
2019-06-10 01:00:00 19.3 3 Nordeste 10 Este 0 1009.7 1.2 80
2019-06-10 00:00:00 19.8 3 Nordeste 7 Nordeste 0 1009.3 1 75
2019-06-09 23:00:00 20.8 3 Sudeste 7 Este 0 1009.2 1.2 71
2019-06-09 22:00:00 21.9 4 Nordeste 10 Sudeste 0 1008.5 1 67
2019-06-09 21:00:00 23.1 8 Este 20 Nordeste 0 1008.3 0.9 63
2019-06-09 20:00:00 25.2 11 Nordeste 20 Nordeste 0 1008 0.5 54
2019-06-09 19:00:00 28.2 10 Este 26 Este 0 1007.5 -0.5 41
2019-06-09 18:00:00 30.5 14 Este 26 Este 0 1007.4 -0.9 35
2019-06-09 17:00:00 30.3 14 Este 25 Este 0 1007.5 -1.5 36
2019-06-09 16:00:00 30 14 Nordeste 24 Nordeste 0 1008 -1.4 40
2019-06-09 15:00:00 30.2 5 Nordeste 19 Nordeste 0 1008.3 -1.2 43
2019-06-09 14:00:00 28.5 9 Nordeste 18 Nordeste 0 1009 -0.7 50
2019-06-09 13:00:00 27.8 5 Nordeste 13 Nordeste 0 1009.4 -0.4 47
2019-06-09 12:00:00 29.7 3 Sudeste 9 Sudoeste 0 1009.5 -1.4 41
2019-06-09 11:00:00 27.2 3 Sudoeste 10 Este 0 1009.7 -0.7 49
2019-06-09 10:00:00 25.5 5 Este 10 Este 0 1009.8 -1.1 54
2019-06-09 09:00:00 21.7 5 Noroeste 10 Norte 0 1010.9 -0.1 66
2019-06-09 08:00:00 19.7 7 Norte 14 Norte 0 1010.4 -0.9 76
2019-06-09 07:00:00 18.5 6 Norte 13 Noroeste 0 1010.9 -0.9 78
2019-06-09 06:00:00 17.8 8 Norte 16 Norte 0 1011 -1.6 76
2019-06-09 05:00:00 17.6 7 Noroeste 14 Norte 0 1011.3 -2.5 73
2019-06-09 04:00:00 18.2 9 Norte 19 Norte 0 1011.8 -2.6 69
2019-06-09 03:00:00 18.4 9 Norte 18 Norte 0 1012.6 -2.9 67
2019-06-09 02:00:00 18.7 13 Norte 21 Norte 0 1013.8 -2.3 68
2019-06-09 01:00:00 18.9 15 Norte 25 Norte 0 1014.4 -1.5 61
2019-06-09 00:00:00 18.5 11 Norte 19 Norte 0 1015.5 -0.6 67
2019-06-08 23:00:00 18.8 9 Norte 18 Norte 0 1016.1 0.1 62
2019-06-08 22:00:00 19.1 12 Norte 22 Norte 0 1015.9 -0.2 65
2019-06-08 21:00:00 20.1 14 Norte 24 Norte 0 1016.1 -0.3 58
2019-06-08 20:00:00 22.1 15 Norte 27 Nordeste 0 1016 -1.1 47
2019-06-08 19:00:00 23.3 16 Nordeste 35 Nordeste 0 1016.1 -1.6 38
2019-06-08 18:00:00 23.8 17 Nordeste 38 Nordeste 0 1016.4 -1.9 34
2019-06-08 17:00:00 24.4 21 Nordeste 37 Nordeste 0 1017.1 -1.7 33
2019-06-08 16:00:00 24.5 23 Nordeste 45 Nordeste 0 1017.7 -1.4 31
2019-06-08 15:00:00 23.7 26 Nordeste 45 Nordeste 0 1018.3 -0.4 36
2019-06-08 14:00:00 23.5 23 Nordeste 46 Nordeste 0 1018.8 0.2 42
2019-06-08 13:00:00 23.2 27 Nordeste 46 Nordeste 0 1019.1 0 45
2019-06-08 12:00:00 22.4 26 Nordeste 46 Nordeste 0 1018.7 -0.2 48
2019-06-08 11:00:00 22.2 27 Nordeste 45 Nordeste 0 1018.6 0.8 50
2019-06-08 10:00:00 21.1 23 Nordeste 39 Nordeste 0 1019.1 1.8 51
2019-06-08 09:00:00 20.2 23 Nordeste 37 Nordeste 0 1018.9 2.4 51
2019-06-08 08:00:00 19.5 20 Norte 35 Nordeste 0 1017.8 1.4 53
2019-06-08 07:00:00 19.2 20 Norte 41 Nordeste 0 1017.3 0.3 58
2019-06-08 06:00:00 18.8 19 Norte 36 Nordeste 0 1016.5 -0.5 60
2019-06-08 05:00:00 19 19 Norte 33 Nordeste 0 1016.4 -0.1 64
2019-06-08 04:00:00 19.2 20 Norte 37 Nordeste 0 1017 1.6 78
2019-06-08 03:00:00 19.5 16 Norte 31 Nordeste 0 1017 1.4 74
2019-06-08 02:00:00 17.6 8 Nordeste 17 Norte 0 1016.5 1.3 80
2019-06-08 01:00:00 17.7 3 Oeste 7 Noroeste 0 1015.4 1.4 76
2019-06-08 00:00:00 18.7 0 Calma 6 Noroeste 0 1015.6 2.6 72
2019-06-07 23:00:00 19.9 0 Calma 9 Este 0 1015.2 3 66
2019-06-07 22:00:00 21.3 7 Este 14 Este 0 1014 2.7 57
2019-06-07 21:00:00 23.4 9 Este 18 Este 0 1013 1.9 53
2019-06-07 20:00:00 25.1 10 Este 21 Nordeste 0 1012.2 1.4 47
2019-06-07 19:00:00 26.4 12 Nordeste 24 Este 0 1011.3 0.9 45
2019-06-07 18:00:00 26.6 13 Este 28 Nordeste 0 1011.1 1.2 48
2019-06-07 17:00:00 26.7 17 Nordeste 30 Nordeste 0 1010.8 1.1 47
2019-06-07 16:00:00 27.5 14 Nordeste 27 Nordeste 0 1010.4 1.1 45
2019-06-07 15:00:00 27.1 17 Nordeste 31 Nordeste 0 1009.9 0.7 47
2019-06-07 14:00:00 27.7 15 Nordeste 30 Nordeste 0 1009.7 0.9 45
2019-06-07 13:00:00 28.7 13 Sudoeste 30 Sur 0 1009.3 0.3 31
2019-06-07 12:00:00 27.4 15 Sur 29 Sur 0 1009.2 0.9 34
2019-06-07 11:00:00 25.2 10 Sur 18 Sur 0 1008.8 0.6 48
2019-06-07 10:00:00 21.4 2 Oeste 19 Nordeste 0 1009 1 65
2019-06-07 09:00:00 19.2 4 Noroeste 10 Sur 0 1008.3 0.8 70
2019-06-07 08:00:00 16.1 4 Sudoeste 15 Sur 0.2 1008.2 0.4 85
2019-06-07 07:00:00 15.2 4 Sur 9 Sudoeste 0 1008 -0.1 88
2019-06-07 06:00:00 15.3 4 Sudoeste 6 Oeste 0 1007.5 -1 90
2019-06-07 05:00:00 16 5 Sudoeste 9 Sur 0 1007.8 -0.8 90
2019-06-07 04:00:00 16.4 5 Sur 8 Sur 0 1008.1 -1.2 89
2019-06-07 03:00:00 18.1 6 Sur 12 Sur 0 1008.5 -1.1 86
2019-06-07 02:00:00 17.9 3 Sudoeste 9 Sudoeste 0 1008.6 -1.5 82
2019-06-07 01:00:00 18.3 5 Oeste 10 Oeste 0 1009.3 -0.5 81
2019-06-07 00:00:00 18.7 4 Sudoeste 8 Oeste 0 1009.6 0 78
2019-06-06 23:00:00 19.4 5 Sudoeste 12 Sur 0 1010.1 0.6 75
2019-06-06 22:00:00 20.1 6 Sur 19 Sudeste 0 1009.8 0.5 71
2019-06-06 21:00:00 21.4 13 Sudeste 25 Sudeste 0 1009.6 -0.1 66
2019-06-06 20:00:00 23 16 Sudeste 35 Sudeste 0 1009.5 -0.4 58
2019-06-06 19:00:00 24.7 19 Sudeste 37 Sudeste 0 1009.3 -1 49
2019-06-06 18:00:00 26 22 Sudeste 43 Sudeste 0 1009.7 -1.1 42
2019-06-06 17:00:00 27.2 21 Sudeste 40 Este 0 1009.9 -1.2 31
2019-06-06 16:00:00 27.4 19 Sudeste 36 Este 0 1010.3 -1.3 33
2019-06-06 15:00:00 27.8 16 Sudeste 31 Este 0 1010.8 -0.8 32
2019-06-06 14:00:00 27 15 Este 25 Nordeste 0 1011.1 -0.5 36
2019-06-06 13:00:00 25.9 13 Nordeste 27 Nordeste 0 1011.6 -0.1 46
2019-06-06 12:00:00 24.7 14 Nordeste 24 Nordeste 0 1011.6 -0.2 46
2019-06-06 11:00:00 23.7 7 Este 18 Sudeste 0 1011.6 0.1 45
2019-06-06 10:00:00 21.4 4 Norte 13 Norte 0 1011.7 0.6 57
2019-06-06 09:00:00 20.1 3 Sudoeste 7 Sudeste 0 1011.8 1 65
2019-06-06 08:00:00 18.3 4 Nordeste 12 Nordeste 0 1011.5 1 74
2019-06-06 07:00:00 16.9 7 Norte 12 Norte 0 1011.1 0.9 79
2019-06-06 06:00:00 16.6 4 Nordeste 13 Norte 0 1010.8 0.8 78
2019-06-06 05:00:00 17.4 9 Norte 15 Nordeste 0 1010.5 1.1 77
2019-06-06 04:00:00 17.5 8 Nordeste 20 Nordeste 0 1010.2 0.6 78
2019-06-06 03:00:00 16.8 4 Nordeste 12 Nordeste 0 1010 1 60
2019-06-06 02:00:00 17.5 0 Calma 7 Sudoeste 0 1009.4 1 58
2019-06-06 01:00:00 18 4 Sur 10 Sudoeste 0 1009.6 2 53
2019-06-06 00:00:00 18.7 7 Sudoeste 15 Noroeste 0 1009 2.1 49
2019-06-05 23:00:00 20.5 9 Noroeste 17 Noroeste 0 1008.4 2.4 39
2019-06-05 22:00:00 20.9 7 Noroeste 30 Noroeste 0 1007.6 2.6 40
2019-06-05 21:00:00 22.4 17 Noroeste 28 Noroeste 0 1006.9 2.5 38
2019-06-05 20:00:00 25.2 8 Noroeste 23 Sudoeste 0 1006 2.2 40
2019-06-05 19:00:00 25.6 12 Oeste 34 Oeste 0 1005 1.8 25
2019-06-05 18:00:00 28.1 15 Oeste 45 Oeste 0 1004.4 1.5 17
2019-06-05 17:00:00 29.8 14 Oeste 38 Sur 0 1003.8 1 13
2019-06-05 16:00:00 30.3 14 Sudoeste 37 Sudoeste 0 1003.2 0.1 23
2019-06-05 15:00:00 28.9 18 Sudoeste 37 Sur 0 1002.9 -0.2 42
2019-06-05 14:00:00 28 17 Sudoeste 39 Sur 0 1002.8 -0.4 49
2019-06-05 13:00:00 26.3 20 Sur 40 Sudoeste 0 1003.1 0.1 52
2019-06-05 12:00:00 25.6 16 Sudoeste 36 Sur 0 1003.1 -0.2 52
2019-06-05 11:00:00 25.4 15 Sudoeste 32 Sudoeste 0 1003.2 -0.6 52
2019-06-05 10:00:00 23 14 Sur 26 Sudoeste 0 1003 -0.6 61
2019-06-05 09:00:00 20.6 14 Sur 26 Sur 0 1003.3 -0.3 76
2019-06-05 08:00:00 16.9 8 Sudoeste 15 Sudoeste 0 1003.8 -0.1 92
2019-06-05 07:00:00 14.9 2 Oeste 8 Sur 0 1003.6 -0.6 93
2019-06-05 06:00:00 15.3 5 Sur 16 Sur 0 1003.6 -1.5 90
2019-06-05 05:00:00 15.5 10 Sur 16 Sur 0 1003.9 -1.9 89
2019-06-05 04:00:00 15.7 6 Sudoeste 12 Sudoeste 0 1004.2 -2 83
2019-06-05 03:00:00 16.1 6 Sur 13 Sudoeste 0 1005.1 -1.2 81
2019-06-05 02:00:00 16.8 4 Sudoeste 13 Sur 0 1005.8 -0.6 77
2019-06-05 01:00:00 18.1 7 Sur 13 Sur 0 1006.2 0.1 79
2019-06-05 00:00:00 18.7 6 Sur 12 Sudoeste 0 1006.3 0.1 64
2019-06-04 23:00:00 20.6 7 Sur 14 Sur 0 1006.4 0.1 58
2019-06-04 22:00:00 22.3 7 Sur 17 Sudeste 0 1006.1 -0.4 49
2019-06-04 21:00:00 25.1 10 Sudeste 23 Sudeste 0 1006.2 -0.6 36
2019-06-04 20:00:00 27.2 15 Sudeste 33 Sudeste 0 1006.3 -0.9 31
2019-06-04 19:00:00 28.4 19 Sudeste 35 Sudeste 0 1006.5 -1.3 28
2019-06-04 18:00:00 29.7 21 Sudeste 33 Sudeste 0 1006.8 -1.5 24
2019-06-04 17:00:00 30.7 18 Sudeste 32 Sudeste 0 1007.2 -1.8 23
2019-06-04 16:00:00 31.4 16 Sur 31 Sudeste 0 1007.8 -2 19
2019-06-04 15:00:00 30.9 15 Sudeste 29 Sur 0 1008.3 -1.8 20
2019-06-04 14:00:00 30.2 13 Sur 30 Sur 0 1009 -1.2 22
2019-06-04 13:00:00 29.7 15 Sur 29 Sur 0 1009.8 -0.6 24
2019-06-04 12:00:00 28.8 12 Sur 27 Sur 0 1010.1 -0.2 27
2019-06-04 11:00:00 27.4 13 Sur 24 Sur 0 1010.2 -0.1 28
2019-06-04 10:00:00 25.2 9 Sur 16 Sur 0 1010.4 0.1 32
2019-06-04 09:00:00 22.3 7 Sur 10 Sur 0 1010.3 0 40
2019-06-04 08:00:00 17.4 5 Sur 13 Sudoeste 0 1010.3 -0.3 53
2019-06-04 07:00:00 14.1 7 Sur 11 Sur 0 1010.3 -0.6 63
2019-06-04 06:00:00 14.1 6 Sur 15 Sur 0 1010.3 -1.3 63
2019-06-04 05:00:00 14.9 9 Sudoeste 15 Sudoeste 0 1010.6 -1.6 61
2019-06-04 04:00:00 15.4 9 Sudoeste 14 Sudoeste 0 1010.9 -1.6 63
2019-06-04 03:00:00 16 6 Sudoeste 14 Sur 0 1011.6 -1.3 65
2019-06-04 02:00:00 16.8 6 Sudoeste 13 Sur 0 1012.2 -0.8 67
2019-06-04 01:00:00 17.7 7 Sur 13 Sur 0 1012.5 -0.5 67
2019-06-04 00:00:00 18.8 8 Sur 15 Sur 0 1012.9 0.2 62
2019-06-03 23:00:00 20.4 9 Sur 14 Sur 0 1013 0.4 54
2019-06-03 22:00:00 22.7 8 Sur 15 Sur 0 1013 0.4 36
2019-06-03 21:00:00 25 10 Sur 21 Sur 0 1012.7 0 28
2019-06-03 20:00:00 27.4 15 Sur 23 Sur 0 1012.6 -0.2 24
2019-06-03 19:00:00 29.1 13 Sur 28 Sudoeste 0 1012.6 -0.3 21
2019-06-03 18:00:00 29.7 12 Sur 27 Sur 0 1012.7 -0.7 26
2019-06-03 17:00:00 30.9 12 Sur 30 Sur 0 1012.8 -1.3 23
2019-06-03 16:00:00 31.1 18 Sudeste 40 Sudeste 0 1012.9 -1.7 20
2019-06-03 15:00:00 31.1 20 Sudeste -- -- 0 1013.4 -1.5 21
2019-06-03 14:00:00 30.3 16 Nordeste 28 Nordeste 0 1014.1 -0.9 25
2019-06-03 13:00:00 29.9 12 Sudeste 23 Sudeste 0 1014.6 -0.5 21
2019-06-03 12:00:00 29.1 6 Este 19 Sur 0 1014.9 0 22
2019-06-03 11:00:00 27.6 5 Sudoeste 16 Este 0 1015 0.1 25
2019-06-03 10:00:00 25.4 6 Sudeste 14 Sur 0 1015.1 0.2 29
2019-06-03 09:00:00 21.1 4 Sur 9 Sudeste 0 1014.9 0.4 45
2019-06-03 08:00:00 16.4 4 Sur 11 Sur 0 1014.9 0.2 59
2019-06-03 07:00:00 13.8 5 Sudoeste 13 Sur 0 1014.9 0 64
2019-06-03 06:00:00 13.9 5 Sudoeste 14 Sudoeste 0 1014.5 -0.6 65
2019-06-03 05:00:00 14.3 7 Sur 13 Sudoeste 0 1014.7 -0.8 64
2019-06-03 04:00:00 14.5 5 Sudoeste 10 Sudoeste 0 1014.9 -0.9 67
2019-06-03 03:00:00 15.6 6 Sudoeste 13 Sudoeste 0 1015.1 -0.8 67
2019-06-03 02:00:00 16.3 5 Sudoeste 13 Sur 0 1015.5 -0.3 66
2019-06-03 01:00:00 17 8 Sur 15 Sudoeste 0 1015.8 0.4 65
2019-06-03 00:00:00 18.1 8 Sur 13 Sudoeste 0 1015.9 1.1 62
2019-06-02 23:00:00 20 8 Sudoeste 14 Sudoeste 0 1015.8 1.5 54
2019-06-02 22:00:00 21.7 8 Sur 23 Sudoeste 0 1015.4 1.2 45
2019-06-02 21:00:00 24.4 9 Sudoeste 24 Sudoeste 0 1014.8 0.2 36
2019-06-02 20:00:00 28.4 13 Sudoeste 26 Sur 0 1014.3 -0.5 27
2019-06-02 19:00:00 29.2 11 Sur 29 Sudeste 0 1014.2 -1 22
2019-06-02 18:00:00 29.1 10 Nordeste 28 Nordeste 0 1014.6 -0.8 27
2019-06-02 17:00:00 28.8 16 Norte 32 Norte 0 1014.8 -1.3 29
2019-06-02 16:00:00 28.8 17 Nordeste 30 Nordeste 0 1015.2 -1.3 30
2019-06-02 15:00:00 28.6 20 Nordeste 29 Nordeste 0 1015.4 -1.3 31
2019-06-02 14:00:00 28.6 14 Nordeste 24 Nordeste 0 1016.1 -0.7 33
2019-06-02 13:00:00 28.8 7 Sudeste 18 Este 0 1016.5 -0.4 26
2019-06-02 12:00:00 27.8 7 Este 14 Sudeste 0 1016.7 -0.3 29
2019-06-02 11:00:00 25.5 6 Sur 14 Sudeste 0 1016.8 -0.2 30
2019-06-02 10:00:00 -- -- -- -- -- -- -- -- --
2019-06-02 09:00:00 -- -- -- -- -- -- -- -- --
2019-06-02 08:00:00 -- -- -- -- -- -- -- -- --
2019-06-02 07:00:00 -- -- -- -- -- -- -- -- --
2019-06-02 06:00:00 -- -- -- -- -- -- -- -- --
2019-06-02 05:00:00 -- -- -- -- -- -- -- -- --
2019-06-02 04:00:00 -- -- -- -- -- -- -- -- --
2019-06-02 03:00:00 -- -- -- -- -- -- -- -- --
2019-06-02 02:00:00 -- -- -- -- -- -- -- -- --
2019-06-02 01:00:00 -- -- -- -- -- -- -- -- --
2019-06-02 00:00:00 17.8 4 Sur 10 Sudoeste 0 1017.9 0.9 62
2019-06-01 23:00:00 19 5 Sur 10 Sudoeste 0 1017.7 1.2 56
2019-06-01 22:00:00 21.2 5 Sur 8 Sur 0 1017.2 0.7 48
2019-06-01 21:00:00 23.2 4 Noroeste 15 Noroeste 0 1017 0.1 48
2019-06-01 20:00:00 25.1 12 Norte 23 Norte 0 1016.5 -0.8 40
2019-06-01 19:00:00 26.5 15 Nordeste 24 Nordeste 0 1016.5 -1.3 28
2019-06-01 18:00:00 27.1 16 Nordeste 26 Nordeste 0 1016.9 -1.3 27
2019-06-01 17:00:00 27.2 14 Nordeste 27 Este 0 1017.3 -1.4 26
2019-06-01 16:00:00 27.1 15 Nordeste 28 Nordeste 0 1017.8 -1.2 30
2019-06-01 15:00:00 27.3 15 Nordeste 27 Nordeste 0 1018.2 -1 32
2019-06-01 14:00:00 26.5 14 Nordeste 26 Norte 0 1018.7 -0.5 34
2019-06-01 13:00:00 26.4 13 Nordeste 23 Nordeste 0 1019 -0.3 32
2019-06-01 12:00:00 26.1 10 Nordeste 19 Nordeste 0 1019.2 -0.2 32
2019-06-01 11:00:00 25.3 4 Este 13 Este 0 1019.2 -0.1 33
2019-06-01 10:00:00 23 3 Nordeste 9 Nordeste 0 1019.3 0.3 47
2019-06-01 09:00:00 19.9 2 Sudeste 6 Este 0 1019.4 0.7 66
2019-06-01 08:00:00 14.4 5 Sur 8 Sur 0 1019.3 0.7 79
2019-06-01 07:00:00 12 5 Sudoeste 10 Sudoeste 0 1019 0.4 84
2019-06-01 06:00:00 11.9 6 Sudoeste 13 Sudoeste 0 1018.7 -0.3 83
2019-06-01 05:00:00 12.4 5 Sudoeste 8 Sur 0 1018.6 -0.7 82
2019-06-01 04:00:00 12.9 4 Sudoeste 6 Sudoeste 0 1018.6 -1 80
2019-06-01 03:00:00 13.9 4 Sudoeste 10 Sudoeste 0 1019 -0.9 77
2019-06-01 02:00:00 14.1 4 Sur 6 Sudoeste 0 1019.3 -0.5 78
2019-06-01 01:00:00 15.3 5 Sudoeste 10 Sur 0 1019.6 0.3 76
2019-06-01 00:00:00 16.1 3 Noroeste 7 Noroeste 0 1019.9 0.7 75
2019-05-31 23:00:00 17.5 3 Noroeste 7 Noroeste 0 1019.8 0.6 70
2019-05-31 22:00:00 19 4 Noroeste 8 Este 0 1019.3 0.1 65
2019-05-31 21:00:00 21 6 Este 16 Nordeste 0 1019.2 -0.2 53
2019-05-31 20:00:00 23.4 9 Nordeste 21 Este 0 1019.2 -0.5 47
2019-05-31 19:00:00 24.5 12 Nordeste 26 Nordeste 0 1019.2 -0.8 46
2019-05-31 18:00:00 25.3 14 Nordeste 24 Nordeste 0 1019.4 -0.8 44
2019-05-31 17:00:00 25.6 14 Nordeste 25 Nordeste 0 1019.7 -0.8 42
2019-05-31 16:00:00 26.7 12 Nordeste 25 Este 0 1020 -0.8 35
2019-05-31 15:00:00 26.7 13 Este 26 Este 0 1020.2 -0.7 32
2019-05-31 14:00:00 26.8 15 Nordeste 32 Nordeste 0 1020.5 -0.4 30
2019-05-31 13:00:00 26 14 Nordeste 28 Este 0 1020.8 -0.2 32
2019-05-31 12:00:00 25.8 9 Nordeste 22 Norte 0 1020.9 0 32
2019-05-31 11:00:00 24.5 16 Nordeste 27 Nordeste 0 1020.9 0.1 32
2019-05-31 10:00:00 22.2 3 Sudoeste 8 Sudeste 0 1021 0.5 41
2019-05-31 09:00:00 19 2 Sur 9 Sur 0 1020.9 0.5 61
2019-05-31 08:00:00 14.4 4 Sur 11 Sur 0 1020.8 0.5 84
2019-05-31 07:00:00 11.7 5 Sudoeste 10 Sur 0 1020.5 0.1 89
2019-05-31 06:00:00 11.7 4 Oeste 10 Sudeste 0 1020.4 -0.4 86
2019-05-31 05:00:00 12.3 5 Sudoeste 9 Sur 0 1020.3 -1 84
2019-05-31 04:00:00 12.9 5 Sudoeste 10 Sur 0 1020.4 -1.3 83
2019-05-31 03:00:00 13.3 4 Sudoeste 8 Sudoeste 0 1020.8 -1.1 82
2019-05-31 02:00:00 14.1 4 Sur 10 Sudoeste 0 1021.3 -0.7 82
2019-05-31 01:00:00 14.9 2 Sudoeste 8 Oeste 0 1021.7 0.7 81
2019-05-31 00:00:00 16.1 5 Oeste 6 Oeste 0 1021.9 1.3 79
2019-05-30 23:00:00 17.2 0 Calma 9 Este 0 1022 1.7 76
2019-05-30 22:00:00 18.4 5 Este 15 Este 0 1021 0.9 71
2019-05-30 21:00:00 20.2 9 Nordeste 22 Este 0 1020.6 0.6 57
2019-05-30 20:00:00 22.5 12 Nordeste 25 Nordeste 0 1020.3 0.2 47
2019-05-30 19:00:00 23.6 15 Este 31 Este 0 1020.1 0 43
2019-05-30 18:00:00 24.4 22 Este 34 Este 0 1020 -0.2 39
2019-05-30 17:00:00 26.3 14 Nordeste 31 Norte 0 1020.1 -0.6 24
2019-05-30 16:00:00 26.3 17 Norte 31 Norte 0 1020.1 -0.9 25
2019-05-30 15:00:00 25.8 10 Norte 21 Noroeste 0 1020.2 -1 30
2019-05-30 14:00:00 25 4 Sudeste 32 Norte 0 1020.7 -0.5 32
2019-05-30 13:00:00 23.8 5 Sudoeste 18 Norte 0 1021 -0.2 34
2019-05-30 12:00:00 24.3 9 Nordeste 15 Este 0 1021.2 0.3 35
2019-05-30 11:00:00 22.9 7 Nordeste 16 Norte 0 1021.2 0.6 37
2019-05-30 10:00:00 21.7 3 Sudoeste 9 Este 0 1021.2 0.9 39
2019-05-30 09:00:00 18.5 6 Sur 10 Sur 0 1020.9 0.9 56
2019-05-30 08:00:00 13.8 5 Sur 8 Sur 0 1020.6 0.7 82
2019-05-30 07:00:00 11.1 3 Sur 8 Sur 0 1020.3 0.2 92
2019-05-30 06:00:00 10.8 3 Sudeste 11 Sudoeste 0 1020 -0.2 89
2019-05-30 05:00:00 11.6 3 Sudoeste 9 Sur 0 1019.9 -0.6 85
2019-05-30 04:00:00 11.7 4 Sur 10 Sur 0 1020.1 -0.5 84
2019-05-30 03:00:00 12.4 5 Sur 11 Sudoeste 0 1020.2 -0.2 82
2019-05-30 02:00:00 13.1 7 Sur 11 Sudoeste 0 1020.5 0.5 81
2019-05-30 01:00:00 14.2 5 Sudoeste 10 Sur 0 1020.6 1.6 78
2019-05-30 00:00:00 15.6 5 Sudoeste 10 Sudoeste 0 1020.4 2.1 73
2019-05-29 23:00:00 17 5 Sudoeste 9 Oeste 0 1020 2.2 69
2019-05-29 22:00:00 17 3 Este 9 Nordeste 0 1019 1.7 68
2019-05-29 21:00:00 17.8 4 Nordeste 14 Nordeste 0 1018.3 1.1 64
2019-05-29 20:00:00 18.6 8 Nordeste 19 Nordeste 0 1017.8 0.8 62
2019-05-29 19:00:00 18.9 11 Nordeste 24 Nordeste 0 1017.3 0.9 59
2019-05-29 18:00:00 19.7 13 Este 26 Este 0 1017.2 0.8 54
2019-05-29 17:00:00 20.9 10 Nordeste 22 Este 0 1017 0.3 48
2019-05-29 16:00:00 21.5 12 Este 22 Este 0 1016.4 -0.4 46
2019-05-29 15:00:00 20.6 6 Este 23 Este 0 1016.4 -0.3 47
2019-05-29 14:00:00 20.5 12 Nordeste 27 Nordeste 0 1016.7 0 47
2019-05-29 13:00:00 21.8 11 Este 22 Sudeste 0 1016.8 0.2 44
2019-05-29 12:00:00 21.5 10 Este 23 Este 0 1016.7 0.5 47
2019-05-29 11:00:00 19.5 11 Nordeste 24 Nordeste 0 1016.7 0.9 58
2019-05-29 10:00:00 18.6 10 Nordeste 19 Nordeste 0 1016.6 1.3 63
2019-05-29 09:00:00 18.2 6 Este 15 Nordeste 0 1016.2 1.6 71
2019-05-29 08:00:00 15.6 5 Este 10 Nordeste 0 1015.8 1.6 92
2019-05-29 07:00:00 14.3 5 Nordeste 11 Nordeste 0 1015.3 1.2 90
2019-05-29 06:00:00 15.1 7 Nordeste 12 Norte 0 1014.6 0.5 79
2019-05-29 05:00:00 14.9 4 Sur 8 Sur 0 1014.2 0.1 76
2019-05-29 04:00:00 14.6 4 Sur 8 Sur 0 1014.1 0.3 77
2019-05-29 03:00:00 14.3 5 Sur 8 Sudoeste 0 1014.1 0.5 78
2019-05-29 02:00:00 14.7 5 Sur 9 Sudoeste 0 1014.1 0.8 78
2019-05-29 01:00:00 15.1 4 Sudoeste 9 Oeste 0 1013.8 1.2 73
2019-05-29 00:00:00 16.1 4 Oeste 8 Noroeste 0 1013.6 1.7 73
2019-05-28 23:00:00 17.7 3 Norte 14 Nordeste 0 1013.3 2 69
2019-05-28 22:00:00 17.9 10 Nordeste 24 Nordeste 0 1012.6 1.8 69
2019-05-28 21:00:00 18.1 11 Nordeste 27 Nordeste 0 1011.9 2 68
2019-05-28 20:00:00 18.4 16 Nordeste 35 Nordeste 0 1011.3 1.6 66
2019-05-28 19:00:00 19.2 26 Nordeste 41 Nordeste 0 1010.8 1.2 65
2019-05-28 18:00:00 21.2 20 Nordeste 35 Nordeste 0 1009.9 0.4 56
2019-05-28 17:00:00 22.9 17 Nordeste 29 Nordeste 0 1009.7 0.2 53
2019-05-28 16:00:00 23.9 18 Nordeste 27 Nordeste 0 1009.6 0.1 52
2019-05-28 15:00:00 24.1 15 Nordeste 30 Nordeste 0 1009.5 0.1 53
2019-05-28 14:00:00 23.5 16 Nordeste 28 Nordeste 0 1009.5 0.1 56
2019-05-28 13:00:00 24.6 16 Nordeste 27 Nordeste 0 1009.5 0.1 57
2019-05-28 12:00:00 23.9 3 Noroeste 13 Sudoeste 0 1009.4 0.2 48
2019-05-28 11:00:00 22.1 5 Oeste 18 Sudoeste 0 1009.4 0.4 61
2019-05-28 10:00:00 20.6 11 Sudoeste 21 Sudoeste 0 1009.4 0.8 71
2019-05-28 09:00:00 19.4 8 Sudoeste 16 Sudoeste 0 1009.2 0.8 86
2019-05-28 08:00:00 15.8 5 Sudoeste 9 Sudoeste 0 1009 0.5 95
2019-05-28 07:00:00 13.6 5 Sudoeste 9 Oeste 0 1008.6 -0.2 95
2019-05-28 06:00:00 13.6 4 Oeste 10 Oeste 0 1008.4 -0.6 95
2019-05-28 05:00:00 13.7 5 Oeste 8 Sudoeste 0 1008.5 -0.9 94
2019-05-28 04:00:00 13.9 3 Sudeste 5 Sudoeste 0 1008.8 -0.8 93
2019-05-28 03:00:00 14.4 3 Sudoeste 7 Oeste 0 1009 0.1 91
2019-05-28 02:00:00 14.8 4 Sudoeste 8 Sudoeste 0 1009.4 0.6 88
2019-05-28 01:00:00 15.6 2 Norte 9 Sudoeste 0 1009.6 1.1 82
2019-05-28 00:00:00 16.5 5 Sudoeste 7 Sudoeste 0 1008.9 0.6 80
2019-05-27 23:00:00 17.1 4 Sudoeste 5 Sudoeste 0 1008.8 0.8 77
2019-05-27 22:00:00 18.2 2 Oeste 10 Nordeste 0 1008.5 0.8 73
2019-05-27 21:00:00 19.5 6 Nordeste 18 Nordeste 0 1008.3 0.7 68
2019-05-27 20:00:00 21.3 13 Nordeste 23 Nordeste 0 1008 0.5 60
2019-05-27 19:00:00 22.3 12 Nordeste 27 Nordeste 0 1007.7 0.1 53
2019-05-27 18:00:00 24.1 14 Nordeste 29 Nordeste 0 1007.6 -0.2 48
2019-05-27 17:00:00 24.4 17 Nordeste 32 Nordeste 0 1007.5 -0.5 47
2019-05-27 16:00:00 24.1 23 Nordeste 35 Nordeste 0 1007.6 -0.9 45
2019-05-27 15:00:00 26.4 5 Sudeste 27 Este 0 1007.8 -0.8 35
2019-05-27 14:00:00 25.7 16 Nordeste 24 Nordeste 0 1008 -0.5 35
2019-05-27 13:00:00 25.3 12 Nordeste 24 Nordeste 0 1008.5 -0.1 38
2019-05-27 12:00:00 24.6 13 Nordeste 23 Nordeste 0 1008.6 0 38
2019-05-27 11:00:00 25.2 12 Este 20 Este 0 1008.5 -0.1 38
2019-05-27 10:00:00 24.1 5 Nordeste 10 Norte 0 1008.6 0.3 37
2019-05-27 09:00:00 21.2 6 Sudeste 10 Sudeste 0 1008.6 0.3 47
2019-05-27 08:00:00 16.4 4 Sur 10 Sur 0 1008.6 0.3 66
2019-05-27 07:00:00 12.6 4 Sur 10 Sudoeste 0 1008.3 -0.4 74
2019-05-27 06:00:00 13.9 6 Sudeste 12 Sudoeste 0 1008.3 -0.6 68
2019-05-27 05:00:00 14 6 Sudoeste 13 Sudoeste 0 1008.3 -1.1 68
2019-05-27 04:00:00 14 5 Sudeste 12 Oeste 0 1008.7 -1.5 69
2019-05-27 03:00:00 14.4 6 Sudeste 13 Sudoeste 0 1008.9 -1.7 70
2019-05-27 02:00:00 14.7 5 Oeste 11 Sudoeste 0 1009.4 -1.4 68
2019-05-27 01:00:00 15 3 Sudoeste 13 Sudoeste 0 1010.2 -0.3 71
2019-05-27 00:00:00 14.8 7 Sudoeste 12 Sudoeste 0 1010.6 0.2 70
2019-05-26 23:00:00 15.7 5 Sur 10 Oeste 0 1010.8 0.6 67
2019-05-26 22:00:00 16.9 5 Oeste 7 Sudoeste 0 1010.5 0.2 63
2019-05-26 21:00:00 19.7 3 Este 15 Norte 0 1010.4 -0.3 53
2019-05-26 20:00:00 21.8 14 Norte 28 Norte 0 1010.2 -0.5 41
2019-05-26 19:00:00 21.7 13 Norte 40 Norte 0 1010.3 -0.6 42
2019-05-26 18:00:00 21.9 10 Norte 37 Norte 0 1010.7 -0.6 43
2019-05-26 17:00:00 23.2 21 Norte 41 Norte 0 1010.7 -0.7 34
2019-05-26 16:00:00 23.4 11 Norte 27 Nordeste 0 1010.9 -0.6 39
2019-05-26 15:00:00 21.6 10 Noroeste 32 Nordeste 0 1011.3 -0.5 44
2019-05-26 14:00:00 22 17 Nordeste 33 Norte 0 1011.4 -0.2 44
2019-05-26 13:00:00 23.3 13 Norte 26 Nordeste 0 1011.5 -0.1 42
2019-05-26 12:00:00 21.7 16 Norte 39 Nordeste 0 1011.8 0.3 47
2019-05-26 11:00:00 22.3 17 Norte 30 Norte 0 1011.6 0.1 43
2019-05-26 10:00:00 21.2 9 Este 16 Este 0 1011.6 0.6 58
2019-05-26 09:00:00 18.7 4 Sur 8 Norte 0 1011.5 0.5 69
2019-05-26 08:00:00 17.9 3 Sur 10 Sudoeste 0 1011.5 0.4 71
2019-05-26 07:00:00 16.9 6 Sudoeste 14 Sudoeste 0 1011 -0.3 72
2019-05-26 06:00:00 14.6 3 Sudeste 11 Sudoeste 0 1011 -0.7 81
2019-05-26 05:00:00 15.3 4 Oeste 12 Sudoeste 0 1011.1 -1 83
2019-05-26 04:00:00 15 5 Sur 14 Sudoeste 0 1011.3 -1.2 87
2019-05-26 03:00:00 15.5 5 Sur 10 Sudoeste 0 1011.7 -1.1 87
2019-05-26 02:00:00 16.3 5 Sur 11 Sur 0 1012.1 -0.8 85
2019-05-26 01:00:00 16.4 3 Sur 8 Este 0 1012.5 0.1 84
2019-05-26 00:00:00 16.5 3 Nordeste 8 Este 0 1012.8 0.7 82